createdAt,value
2022-10-15T00:06:49.582Z,13.26
2022-10-15T00:17:10.949Z,13.37
2022-10-15T00:27:33.239Z,13.21
2022-10-15T00:37:54.623Z,13.31
2022-10-15T00:48:15.992Z,13.15
2022-10-15T00:58:37.361Z,13.11
2022-10-15T01:08:59.926Z,13.24
2022-10-15T01:19:21.272Z,12.99
2022-10-15T01:29:54.964Z,13.13
2022-10-15T01:40:22.196Z,12.96
2022-10-15T01:50:48.470Z,12.93
2022-10-15T02:01:09.912Z,13.09
2022-10-15T02:11:35.920Z,13.04
2022-10-15T02:22:01.315Z,13.03
2022-10-15T02:32:23.675Z,12.97
2022-10-15T02:42:45.202Z,13.06
2022-10-15T02:53:06.953Z,13.13
2022-10-15T03:03:28.357Z,13.12
2022-10-15T03:13:49.827Z,13.00
2022-10-15T03:24:11.188Z,12.97
2022-10-15T03:34:32.559Z,13.10
2022-10-15T03:44:53.925Z,12.95
2022-10-15T03:55:15.279Z,12.99
2022-10-15T04:05:36.948Z,12.98
2022-10-15T04:15:58.282Z,12.99
2022-10-15T04:26:19.640Z,12.81
2022-10-15T04:36:41.042Z,12.71
2022-10-15T04:47:02.528Z,12.76
2022-10-15T04:57:24.204Z,12.49
2022-10-15T05:07:45.794Z,12.55
2022-10-15T05:18:07.184Z,12.61
2022-10-15T05:28:29.313Z,12.62
2022-10-15T05:38:52.087Z,12.47
2022-10-15T05:49:13.486Z,12.58
2022-10-15T05:59:34.882Z,12.49
2022-10-15T06:09:56.227Z,12.65
2022-10-15T06:20:17.582Z,12.53
2022-10-15T06:30:38.930Z,12.42
2022-10-15T06:41:03.521Z,12.47
2022-10-15T06:51:24.914Z,12.57
2022-10-15T07:01:46.280Z,12.73
2022-10-15T07:12:07.638Z,12.67
2022-10-15T07:22:28.968Z,12.85
2022-10-15T07:32:50.380Z,13.10
2022-10-15T07:43:11.870Z,13.21
2022-10-15T07:53:33.877Z,13.47
2022-10-15T08:03:55.262Z,13.51
2022-10-15T08:14:17.745Z,13.59
2022-10-15T08:24:39.093Z,13.69
2022-10-15T08:35:00.459Z,13.88
2022-10-15T08:45:25.632Z,14.00
2022-10-15T08:55:49.854Z,14.14
2022-10-15T09:06:11.181Z,14.30
2022-10-15T09:16:34.044Z,14.55
2022-10-15T09:27:14.064Z,14.40
2022-10-15T09:37:43.127Z,14.55
2022-10-15T09:48:13.794Z,14.78
2022-10-15T09:58:47.345Z,14.93
2022-10-15T10:09:15.026Z,15.23
2022-10-15T10:19:36.403Z,15.53
2022-10-15T10:30:02.511Z,15.59
2022-10-15T10:40:26.869Z,15.82
2022-10-15T10:50:48.395Z,16.08
2022-10-15T11:01:13.731Z,16.35
2022-10-15T11:11:47.249Z,16.09
2022-10-15T11:22:14.840Z,16.13
2022-10-15T11:33:01.805Z,16.14
2022-10-15T11:43:52.974Z,15.82
2022-10-15T11:54:14.341Z,15.95
2022-10-15T12:04:41.295Z,16.20
2022-10-15T12:15:11.958Z,16.35
2022-10-15T12:25:36.428Z,16.38
2022-10-15T12:36:03.322Z,16.38
2022-10-15T12:46:35.506Z,16.30
2022-10-15T12:56:56.902Z,16.46
2022-10-15T13:07:18.280Z,16.51
2022-10-15T13:17:39.805Z,16.32
2022-10-15T13:28:01.149Z,16.51
2022-10-15T13:38:23.865Z,16.46
2022-10-15T13:48:45.246Z,16.38
2022-10-15T13:59:06.615Z,16.30
2022-10-15T14:09:28.457Z,16.11
2022-10-15T14:20:14.464Z,15.98
2022-10-15T14:30:36.819Z,15.85
2022-10-15T14:41:03.578Z,15.88
2022-10-15T14:51:29.335Z,15.79
2022-10-15T15:02:13.652Z,15.78
2022-10-15T15:12:35.488Z,15.85
2022-10-15T15:22:56.972Z,15.85
2022-10-15T15:33:18.404Z,15.76
2022-10-15T15:43:39.837Z,15.77
2022-10-15T15:54:04.453Z,15.80
2022-10-15T16:04:25.852Z,15.84
2022-10-15T16:14:49.606Z,15.91
2022-10-15T16:25:10.973Z,15.95
2022-10-15T16:35:32.422Z,15.91
2022-10-15T16:45:57.247Z,16.01
2022-10-15T16:56:20.918Z,16.06
2022-10-15T17:06:42.318Z,15.96
2022-10-15T17:17:03.798Z,16.11
2022-10-15T17:27:25.148Z,16.11
2022-10-15T17:37:47.168Z,15.78
2022-10-15T17:48:08.520Z,15.84
2022-10-15T17:58:29.869Z,15.77
2022-10-15T18:08:51.877Z,15.74
2022-10-15T18:19:13.326Z,15.75
2022-10-15T18:29:36.017Z,15.65
2022-10-15T18:39:57.389Z,15.64
2022-10-15T18:50:18.736Z,15.63
2022-10-15T19:00:40.194Z,15.46
2022-10-15T19:11:08.667Z,15.46
2022-10-15T19:21:30.699Z,15.34
2022-10-15T19:31:52.336Z,15.18
2022-10-15T19:42:14.271Z,15.07
2022-10-15T19:52:35.662Z,15.11
2022-10-15T20:02:57.005Z,14.83
2022-10-15T20:13:19.205Z,14.76
2022-10-15T20:23:41.438Z,14.76
2022-10-15T20:34:03.194Z,14.74
2022-10-15T20:44:24.572Z,14.73
2022-10-15T20:54:46.068Z,14.64
2022-10-15T21:05:07.595Z,14.60
2022-10-15T21:15:30.611Z,14.56
2022-10-15T21:25:52.004Z,14.46
2022-10-15T21:36:14.657Z,14.32
2022-10-15T21:46:36.161Z,14.31
2022-10-15T21:56:57.538Z,14.18
2022-10-15T22:07:18.873Z,14.15
2022-10-15T22:17:40.240Z,14.17
2022-10-15T22:28:01.594Z,14.27
2022-10-15T22:38:22.987Z,14.14
2022-10-15T22:48:44.446Z,14.03
2022-10-15T22:59:05.939Z,14.20
2022-10-15T23:09:27.320Z,14.11
2022-10-15T23:19:49.188Z,13.96
2022-10-15T23:30:20.994Z,14.00
2022-10-15T23:40:45.620Z,13.89
2022-10-15T23:51:20.669Z,13.79
